Time;durP1;ratioP1;P1;durP2;ratioP2;P2;SDS_P1;SDS_P2;PMS_P1;PMS_P2;Temp;Humidity;BMP_temperature;BMP_pressure;BME280_temperature;BME280_humidity;BME280_pressure;Samples;Min_cycle;Max_cycle;Signal;HPM_P1;HPM_P2
2021/11/29 00:02:49;;;;;;;9.38;5.70;;;;;;;8.01;100.00;97669.88;6321107;28;20036;-73
2021/11/29 00:05:50;;;;;;;8.60;5.45;;;;;;;7.95;100.00;97660.03;6319580;28;20062;-74
2021/11/29 00:08:51;;;;;;;8.70;6.30;;;;;;;7.93;100.00;97673.16;6303014;28;20036;-74
2021/11/29 00:11:51;;;;;;;9.57;5.85;;;;;;;7.95;100.00;97680.78;6319765;28;20059;-74
2021/11/29 00:14:52;;;;;;;9.35;5.93;;;;;;;7.94;100.00;97689.56;6319580;28;20047;-74
2021/11/29 00:17:53;;;;;;;7.65;5.68;;;;;;;7.83;100.00;97693.91;6302743;28;20101;-73
2021/11/29 00:20:54;;;;;;;12.23;6.35;;;;;;;7.66;100.00;97694.56;6319621;28;20412;-74
2021/11/29 00:23:55;;;;;;;10.50;7.07;;;;;;;7.69;100.00;97694.28;6319552;28;20044;-73
2021/11/29 00:26:55;;;;;;;10.93;7.38;;;;;;;7.66;100.00;97684.19;6320547;28;20492;-73
2021/11/29 00:29:56;;;;;;;12.27;7.40;;;;;;;7.57;100.00;97688.38;6320904;28;20089;-73
2021/11/29 00:32:57;;;;;;;10.40;7.35;;;;;;;7.71;100.00;97683.78;6307383;28;20046;-74
2021/11/29 00:35:58;;;;;;;12.50;7.72;;;;;;;7.65;100.00;97690.31;6307409;28;20062;-74
2021/11/29 00:38:58;;;;;;;11.75;7.82;;;;;;;7.71;100.00;97686.38;6307295;28;20051;-74
2021/11/29 00:41:59;;;;;;;11.15;8.65;;;;;;;7.70;100.00;97689.91;6325350;28;20040;-73
2021/11/29 00:45:00;;;;;;;12.50;8.40;;;;;;;7.69;100.00;97688.28;6324044;28;20040;-74
2021/11/29 00:48:01;;;;;;;14.43;9.15;;;;;;;7.75;100.00;97698.13;6325068;28;20123;-74
2021/11/29 00:51:02;;;;;;;13.30;8.93;;;;;;;7.72;100.00;97696.63;6325117;28;20249;-74
2021/11/29 00:54:04;;;;;;;13.40;8.77;;;;;;;7.66;100.00;97687.59;6324959;28;20040;-74
2021/11/29 00:57:05;;;;;;;12.55;8.48;;;;;;;7.67;100.00;97685.81;6324797;28;20040;-74
2021/11/29 01:00:12;;;;;;;14.60;9.25;;;;;;;7.66;100.00;97679.00;6323588;28;20470;-73
2021/11/29 01:03:14;;;;;;;15.07;8.82;;;;;;;7.69;100.00;97696.06;6324909;28;20063;-73
2021/11/29 01:06:15;;;;;;;12.10;8.02;;;;;;;7.72;100.00;97696.63;6324670;28;20489;-74
2021/11/29 01:09:15;;;;;;;13.02;8.07;;;;;;;7.70;100.00;97687.31;6306832;28;20396;-74
2021/11/29 01:12:17;;;;;;;13.80;8.23;;;;;;;7.66;100.00;97692.78;6323206;28;20424;-74
2021/11/29 01:15:21;;;;;;;11.52;8.05;;;;;;;7.72;100.00;97694.03;6324490;28;20446;-74
2021/11/29 01:18:22;;;;;;;12.60;8.52;;;;;;;7.69;100.00;97688.28;6324321;28;20043;-74
2021/11/29 01:21:23;;;;;;;12.85;8.57;;;;;;;7.65;100.00;97685.94;6324483;28;20146;-73
2021/11/29 01:24:24;;;;;;;15.02;8.85;;;;;;;7.64;100.00;97680.91;6323187;28;20518;-73
2021/11/29 01:27:25;;;;;;;17.33;10.15;;;;;;;7.57;100.00;97685.78;6324163;28;20052;-74
2021/11/29 01:30:26;;;;;;;23.30;9.55;;;;;;;7.51;100.00;97682.91;6322972;28;20051;-74
2021/11/29 01:33:27;;;;;;;14.88;9.65;;;;;;;7.57;100.00;97685.78;6323960;28;20067;-74
2021/11/29 01:36:28;;;;;;;16.70;11.10;;;;;;;7.59;100.00;97680.47;6322881;28;20036;-74
2021/11/29 01:39:29;;;;;;;16.75;10.57;;;;;;;7.61;100.00;97683.75;6305931;28;20044;-73
2021/11/29 01:42:29;;;;;;;19.38;11.70;;;;;;;7.50;100.00;97681.28;6322713;28;20059;-73
2021/11/29 01:45:33;;;;;;;21.75;12.35;;;;;;;7.46;100.00;97671.16;6305858;28;20036;-73
2021/11/29 01:48:34;;;;;;;24.38;13.82;;;;;;;7.45;100.00;97658.28;6323722;28;20036;-74
2021/11/29 01:51:35;;;;;;;22.05;13.73;;;;;;;7.39;100.00;97653.63;6322407;28;20518;-74
2021/11/29 01:54:36;;;;;;;26.73;14.30;;;;;;;7.40;100.00;97660.47;6323583;28;20423;-74
2021/11/29 01:57:37;;;;;;;22.48;13.50;;;;;;;7.49;100.00;97659.66;6323396;28;20408;-73
2021/11/29 02:00:45;;;;;;;24.75;14.18;;;;;;;7.49;100.00;97658.84;6322629;28;20094;-74
2021/11/29 02:03:51;;;;;;;28.33;15.18;;;;;;;7.31;100.00;97651.72;6322162;28;20438;-74
2021/11/29 02:06:51;;;;;;;24.95;14.13;;;;;;;7.33;100.00;97665.38;6323332;28;20400;-74
2021/11/29 02:09:52;;;;;;;24.40;14.93;;;;;;;7.29;100.00;97670.94;6323306;28;20075;-74
2021/11/29 02:12:53;;;;;;;24.38;14.73;;;;;;;7.28;100.00;97675.31;6322121;28;20048;-74
2021/11/29 02:15:54;;;;;;;25.40;14.57;;;;;;;7.28;100.00;97670.13;6323172;28;20036;-72
2021/11/29 02:18:55;;;;;;;25.50;15.00;;;;;;;7.19;100.00;97673.53;6321773;28;20051;-72
2021/11/29 02:21:56;;;;;;;23.98;15.48;;;;;;;7.22;100.00;97676.66;6323063;28;20044;-72
2021/11/29 02:24:57;;;;;;;27.75;14.60;;;;;;;7.16;100.00;97674.56;6323178;28;20075;-72
2021/11/29 02:27:58;;;;;;;23.45;14.38;;;;;;;7.22;100.00;97681.84;6321362;28;20096;-73
2021/11/29 02:30:59;;;;;;;25.23;14.30;;;;;;;7.20;100.00;97683.75;6321476;28;20123;-74
2021/11/29 02:34:09;;;;;;;23.27;13.70;;;;;;;7.14;100.00;97688.63;6304583;28;20112;-73
2021/11/29 02:37:09;;;;;;;24.77;15.57;;;;;;;7.19;100.00;97702.84;6322335;28;20040;-73
2021/11/29 02:40:10;;;;;;;20.38;11.82;;;;;;;6.98;100.00;97702.06;6322680;28;20093;-74
2021/11/29 02:43:11;;;;;;;20.10;12.25;;;;;;;6.97;100.00;97713.38;6322577;28;20381;-74
2021/11/29 02:46:13;;;;;;;23.65;13.07;;;;;;;6.85;100.00;97697.06;6304339;28;20058;-74
2021/11/29 02:49:15;;;;;;;22.43;12.20;;;;;;;6.84;100.00;97696.25;6304359;28;20044;-74
2021/11/29 02:52:18;;;;;;;18.37;11.63;;;;;;;6.77;100.00;97694.31;6321742;28;20280;-72
2021/11/29 02:55:19;;;;;;;19.65;10.80;;;;;;;6.63;100.00;97701.47;6322125;28;20318;-72
2021/11/29 02:58:19;;;;;;;15.55;8.75;;;;;;;6.61;100.00;97693.00;6320813;28;20064;-74
2021/11/29 03:01:20;;;;;;;13.10;8.50;;;;;;;6.48;100.00;97688.94;6320934;28;20488;-73
2021/11/29 03:04:23;;;;;;;13.57;7.38;;;;;;;6.55;100.00;97701.25;6303757;28;20120;-74
2021/11/29 03:07:24;;;;;;;13.20;8.00;;;;;;;6.52;100.00;97704.09;6321819;28;20376;-73
2021/11/29 03:10:24;;;;;;;12.00;7.40;;;;;;;6.46;100.00;97712.38;6322138;28;20036;-73
2021/11/29 03:13:25;;;;;;;12.07;7.97;;;;;;;6.40;100.00;97718.03;6287138;28;20035;-73
2021/11/29 03:16:27;;;;;;;14.98;7.82;;;;;;;6.51;100.00;97727.56;6320527;28;20507;-73
2021/11/29 03:19:30;;;;;;;11.13;7.93;;;;;;;6.45;100.00;97723.69;6320432;28;20510;-73
2021/11/29 03:22:31;;;;;;;10.15;6.72;;;;;;;6.24;100.00;97732.25;6320441;28;20488;-74
2021/11/29 03:25:33;;;;;;;10.98;6.97;;;;;;;6.20;100.00;97737.78;6321947;28;20044;-74
2021/11/29 03:28:38;;;;;;;10.77;6.80;;;;;;;6.12;100.00;97735.81;6320240;28;20054;-74
2021/11/29 03:31:41;;;;;;;8.60;5.95;;;;;;;5.98;100.00;97734.31;6320339;28;20521;-73
2021/11/29 03:34:42;;;;;;;9.77;5.82;;;;;;;5.97;100.00;97737.84;6320171;28;20161;-72
2021/11/29 03:37:42;;;;;;;11.77;5.78;;;;;;;5.83;100.00;97751.03;6286550;28;20063;-72
2021/11/29 03:40:43;;;;;;;14.98;7.30;;;;;;;5.94;100.00;97748.41;6321367;28;20063;-72
2021/11/29 03:43:44;;;;;;;9.07;6.38;;;;;;;5.67;100.00;97758.34;6303277;28;20044;-74
2021/11/29 03:46:48;;;;;;;9.13;5.95;;;;;;;5.53;100.00;97762.78;6319888;28;20048;-74
2021/11/29 03:49:49;;;;;;;9.88;7.20;;;;;;;5.55;100.00;97760.91;6321077;28;20044;-72
2021/11/29 03:52:50;;;;;;;8.98;6.50;;;;;;;5.65;100.00;97761.84;6303185;28;20505;-72
2021/11/29 03:55:50;;;;;;;9.43;6.85;;;;;;;5.51;100.00;97763.84;6303257;28;20036;-72
2021/11/29 03:58:51;;;;;;;10.75;7.88;;;;;;;5.62;100.00;97754.34;6319670;28;20036;-72
2021/11/29 04:01:52;;;;;;;14.73;8.02;;;;;;;5.71;100.00;97736.47;6321058;28;20040;-74
2021/11/29 04:04:53;;;;;;;10.95;7.38;;;;;;;5.83;100.00;97730.31;6322342;28;20048;-73
2021/11/29 04:07:54;;;;;;;14.82;8.52;;;;;;;5.81;100.00;97727.03;6324966;28;20542;-73
2021/11/29 04:10:54;;;;;;;13.05;8.57;;;;;;;5.79;100.00;97728.91;6308081;28;20047;-73
2021/11/29 04:13:55;;;;;;;16.17;9.23;;;;;;;5.99;100.00;97715.25;6307925;28;20381;-74
2021/11/29 04:16:56;;;;;;;16.65;9.18;;;;;;;6.01;100.00;97715.13;6324795;28;20040;-74
2021/11/29 04:19:57;;;;;;;15.18;10.18;;;;;;;6.04;100.00;97709.72;6324583;28;20044;-72
2021/11/29 04:22:58;;;;;;;16.10;9.65;;;;;;;5.93;100.00;97702.78;6325897;28;20093;-74
2021/11/29 04:26:01;;;;;;;16.38;9.45;;;;;;;5.96;100.00;97715.50;6307770;28;20514;-72
2021/11/29 04:29:07;;;;;;;14.73;9.50;;;;;;;5.93;100.00;97712.28;6307755;28;20048;-74
2021/11/29 04:32:09;;;;;;;18.98;11.60;;;;;;;5.86;100.00;97717.94;6325557;28;20043;-74
2021/11/29 04:35:10;;;;;;;22.55;13.10;;;;;;;5.73;100.00;97706.94;6324411;28;20046;-73
2021/11/29 04:38:12;;;;;;;20.92;13.02;;;;;;;5.80;100.00;97710.66;6324075;28;20040;-72
2021/11/29 04:41:12;;;;;;;21.88;12.82;;;;;;;5.84;100.00;97717.25;6325394;28;20131;-71
2021/11/29 04:44:13;;;;;;;22.23;12.82;;;;;;;5.85;100.00;97716.31;6324327;28;20032;-73
2021/11/29 04:47:14;;;;;;;18.63;11.98;;;;;;;5.92;100.00;97716.66;6325165;28;20040;-74
2021/11/29 04:50:15;;;;;;;17.42;12.35;;;;;;;5.92;100.00;97710.66;6323935;28;20044;-72
2021/11/29 04:53:16;;;;;;;20.30;13.15;;;;;;;5.81;100.00;97709.72;6325010;28;20301;-73
2021/11/29 04:56:17;;;;;;;21.98;13.38;;;;;;;5.88;100.00;97724.78;6307362;28;20040;-74
2021/11/29 04:59:18;;;;;;;20.30;12.77;;;;;;;5.64;100.00;97730.91;6323602;28;20542;-74
2021/11/29 05:02:18;;;;;;;20.73;13.25;;;;;;;5.65;100.00;97741.16;6323930;28;20048;-73
2021/11/29 05:05:19;;;;;;;20.10;12.43;;;;;;;5.72;100.00;97743.25;6306701;28;20082;-74
2021/11/29 05:08:20;;;;;;;17.25;11.77;;;;;;;5.78;100.00;97766.88;6323502;28;20040;-74
2021/11/29 05:11:21;;;;;;;18.38;12.75;;;;;;;5.71;100.00;97764.91;6324626;28;20089;-74
2021/11/29 05:14:21;;;;;;;20.58;13.35;;;;;;;5.74;100.00;97775.84;6324555;28;20036;-74
2021/11/29 05:17:24;;;;;;;18.67;12.30;;;;;;;5.62;100.00;97785.38;6306458;28;20036;-74
2021/11/29 05:20:24;;;;;;;19.35;11.95;;;;;;;5.56;100.00;97795.34;6324439;28;20051;-72
2021/11/29 05:23:25;;;;;;;18.90;11.85;;;;;;;5.36;100.00;97805.47;6324475;28;20063;-71
2021/11/29 05:26:27;;;;;;;18.05;11.10;;;;;;;5.27;100.00;97800.16;6305744;28;20143;-71
2021/11/29 05:29:28;;;;;;;18.13;13.00;;;;;;;5.13;100.00;97799.44;6324148;28;20040;-71
2021/11/29 05:32:28;;;;;;;17.10;11.70;;;;;;;5.07;100.00;97802.47;6324106;28;20343;-71
2021/11/29 05:35:29;;;;;;;20.92;13.23;;;;;;;5.22;100.00;97809.09;6306157;28;20040;-72
2021/11/29 05:38:30;;;;;;;21.50;13.63;;;;;;;5.18;100.00;97814.59;6322866;28;20044;-72
2021/11/29 05:41:31;;;;;;;22.95;13.25;;;;;;;5.10;100.00;97807.41;6322740;28;20043;-71
2021/11/29 05:44:32;;;;;;;17.05;11.38;;;;;;;4.92;100.00;97821.69;6324011;28;20083;-71
2021/11/29 05:47:33;;;;;;;18.63;11.45;;;;;;;4.78;100.00;97833.88;6323692;28;20047;-74
2021/11/29 05:50:34;;;;;;;18.05;11.30;;;;;;;4.68;100.00;97839.81;6323869;28;20050;-72
2021/11/29 05:53:35;;;;;;;15.82;10.75;;;;;;;4.40;100.00;97852.91;6322333;28;20036;-72
2021/11/29 05:56:36;;;;;;;16.40;10.50;;;;;;;4.39;100.00;97871.94;6322681;28;20510;-74
2021/11/29 05:59:37;;;;;;;16.88;10.07;;;;;;;4.29;100.00;97865.78;6323410;28;20044;-74
2021/11/29 06:02:39;;;;;;;16.83;11.77;;;;;;;4.07;100.00;97860.47;6289052;28;20066;-74
2021/11/29 06:05:39;;;;;;;19.27;11.15;;;;;;;4.00;100.00;97878.94;6322074;28;20051;-72
2021/11/29 06:08:40;;;;;;;16.05;10.13;;;;;;;3.91;100.00;97881.31;6322394;28;20036;-71
2021/11/29 06:11:41;;;;;;;16.65;11.15;;;;;;;3.82;100.00;97891.34;6321936;28;20047;-74
2021/11/29 06:14:42;;;;;;;17.85;11.38;;;;;;;3.84;100.00;97891.25;6323031;28;20041;-74
2021/11/29 06:17:43;;;;;;;18.48;10.63;;;;;;;3.78;100.00;97905.38;6323042;28;20051;-74
2021/11/29 06:20:44;;;;;;;19.58;10.68;;;;;;;3.81;100.00;97909.53;6304669;28;20231;-74
2021/11/29 06:23:45;;;;;;;17.23;11.00;;;;;;;3.71;100.00;97893.84;6323005;28;20267;-74
2021/11/29 06:26:46;;;;;;;17.20;11.38;;;;;;;3.87;100.00;97900.53;6322160;28;20044;-72
2021/11/29 06:29:46;;;;;;;17.38;11.02;;;;;;;3.89;100.00;97907.25;6321217;28;20036;-75
2021/11/29 06:32:48;;;;;;;20.45;11.43;;;;;;;4.08;100.00;97906.81;6321458;28;20040;-73
2021/11/29 06:35:50;;;;;;;21.90;11.90;;;;;;;4.01;100.00;97890.91;6321582;28;20428;-72
2021/11/29 06:38:52;;;;;;;22.00;10.60;;;;;;;4.02;100.00;97896.91;6321420;28;20044;-72
2021/11/29 06:41:53;;;;;;;18.77;11.60;;;;;;;3.98;100.00;97904.03;6304379;28;20087;-72
2021/11/29 06:44:54;;;;;;;18.75;11.35;;;;;;;4.02;100.00;97900.31;6321310;28;20521;-72
2021/11/29 06:47:55;;;;;;;18.65;11.38;;;;;;;4.03;100.00;97895.97;6321163;28;20039;-74
2021/11/29 06:50:56;;;;;;;21.38;12.10;;;;;;;4.02;100.00;97897.72;6321163;28;20484;-74
2021/11/29 06:53:57;;;;;;;18.33;12.07;;;;;;;4.12;100.00;97912.56;6304175;28;20048;-76
2021/11/29 06:56:58;;;;;;;19.10;11.88;;;;;;;3.97;100.00;97914.44;6320998;28;20117;-76
2021/11/29 07:00:23;;;;;;;16.08;10.55;;;;;;;3.86;100.00;97924.69;6307079;28;20051;-76
2021/11/29 07:03:44;;;;;;;16.95;10.52;;;;;;;3.82;100.00;97947.28;6322175;28;20063;-76
2021/11/29 07:07:05;;;;;;;15.18;10.10;;;;;;;3.65;100.00;97948.41;6307264;28;20055;-76
2021/11/29 07:10:07;;;;;;;19.17;10.95;;;;;;;3.62;100.00;97952.03;6320622;28;20047;-74
2021/11/29 07:13:11;;;;;;;19.70;11.70;;;;;;;3.60;100.00;97934.97;6320522;28;20040;-76
2021/11/29 07:16:12;;;;;;;18.98;11.40;;;;;;;3.61;100.00;97934.06;6321830;28;20046;-73
2021/11/29 07:19:14;;;;;;;22.10;11.13;;;;;;;3.66;100.00;97926.00;6321662;28;20043;-74
2021/11/29 07:22:15;;;;;;;17.83;10.95;;;;;;;3.71;100.00;97923.97;6320337;28;20040;-76
2021/11/29 07:25:16;;;;;;;21.10;12.25;;;;;;;3.47;100.00;97939.31;6287092;28;20044;-77
2021/11/29 07:28:17;;;;;;;18.60;11.10;;;;;;;3.25;100.00;97934.72;6320224;28;20048;-76
2021/11/29 07:31:18;;;;;;;19.20;11.55;;;;;;;3.28;100.00;97944.84;6315725;28;20032;-74
2021/11/29 07:34:19;;;;;;;15.60;10.15;;;;;;;3.21;100.00;97950.38;6305904;28;20400;-74
2021/11/29 07:37:20;;;;;;;16.27;9.75;;;;;;;3.25;100.00;97945.84;6295150;28;20045;-75
2021/11/29 07:40:27;;;;;;;21.15;12.23;;;;;;;3.46;100.00;97948.81;6295643;28;20067;-73
2021/11/29 07:43:28;;;;;;;22.10;12.20;;;;;;;3.58;100.00;97954.88;6295892;28;20048;-74
2021/11/29 07:46:29;;;;;;;14.32;8.82;;;;;;;3.54;100.00;97963.75;6307366;28;20629;-75
2021/11/29 07:49:30;;;;;;;20.80;11.65;;;;;;;3.44;100.00;97968.69;6295037;28;20037;-75
2021/11/29 07:52:30;;;;;;;19.55;11.27;;;;;;;3.44;100.00;97984.16;6266220;28;20037;-75
2021/11/29 07:55:32;;;;;;;20.38;11.70;;;;;;;3.48;100.00;97977.03;6309924;28;20048;-73
2021/11/29 07:58:33;;;;;;;18.90;11.13;;;;;;;3.43;100.00;97970.44;6322007;28;20078;-75
2021/11/29 08:01:34;;;;;;;19.08;11.45;;;;;;;3.25;100.00;97963.88;6304126;28;20109;-73
2021/11/29 08:04:35;;;;;;;20.05;12.48;;;;;;;3.36;100.00;97973.53;6322069;28;20071;-74
2021/11/29 08:07:35;;;;;;;25.58;12.63;;;;;;;3.37;100.00;97980.31;6322005;28;20123;-74
2021/11/29 08:10:38;;;;;;;20.60;12.98;;;;;;;3.51;100.00;97985.41;6321534;28;20078;-73
2021/11/29 08:13:38;;;;;;;21.20;12.52;;;;;;;3.46;100.00;97992.63;6321757;28;20040;-74
2021/11/29 08:16:39;;;;;;;21.50;12.38;;;;;;;3.48;100.00;97985.63;6320504;28;20055;-72
2021/11/29 08:19:40;;;;;;;22.73;13.00;;;;;;;3.38;100.00;97989.72;6320359;28;20047;-71
2021/11/29 08:22:41;;;;;;;19.40;12.70;;;;;;;3.45;100.00;97988.38;6313635;28;20052;-73
2021/11/29 08:25:42;;;;;;;19.23;12.55;;;;;;;3.37;100.00;97978.56;6301053;28;20409;-72
2021/11/29 08:28:43;;;;;;;19.90;12.75;;;;;;;3.38;100.00;97989.72;6277738;28;20059;-72
2021/11/29 08:31:44;;;;;;;20.05;11.50;;;;;;;3.49;100.00;97995.00;6295357;28;20048;-73
2021/11/29 08:34:44;;;;;;;20.90;11.32;;;;;;;3.45;100.00;97998.69;6295571;28;20044;-74
2021/11/29 08:37:46;;;;;;;20.50;11.55;;;;;;;3.36;100.00;98018.16;6294350;28;20041;-74
2021/11/29 08:40:49;;;;;;;23.75;13.70;;;;;;;3.49;100.00;98028.53;6294253;28;20063;-74
2021/11/29 08:43:50;;;;;;;21.65;13.02;;;;;;;3.56;100.00;98023.78;6327932;28;20075;-74
2021/11/29 08:46:51;;;;;;;21.50;13.15;;;;;;;3.59;100.00;98024.41;6295505;28;20036;-74
2021/11/29 08:49:51;;;;;;;19.98;12.48;;;;;;;3.68;100.00;98038.47;6295523;28;20480;-73
2021/11/29 08:52:52;;;;;;;20.77;12.80;;;;;;;3.65;100.00;98025.78;6281643;28;20174;-73
2021/11/29 08:55:54;;;;;;;22.23;13.75;;;;;;;3.67;100.00;98025.69;6297950;28;20191;-74
2021/11/29 08:58:55;;;;;;;21.67;13.75;;;;;;;3.75;100.00;98029.41;6321779;28;20123;-74
2021/11/29 09:01:56;;;;;;;21.58;12.73;;;;;;;3.55;100.00;98035.84;6305731;28;20407;-73
2021/11/29 09:04:57;;;;;;;22.35;14.15;;;;;;;3.51;100.00;98020.69;6305865;28;20495;-73
2021/11/29 09:07:57;;;;;;;21.95;14.57;;;;;;;3.57;100.00;98015.13;6322521;28;20047;-74
2021/11/29 09:10:59;;;;;;;21.50;14.15;;;;;;;3.61;100.00;98016.59;6324083;28;20044;-73
2021/11/29 09:14:01;;;;;;;23.00;14.27;;;;;;;3.62;100.00;98008.75;6323319;28;20040;-74
2021/11/29 09:17:02;;;;;;;24.08;15.02;;;;;;;3.49;100.00;98022.53;6323353;28;20399;-73
2021/11/29 09:20:08;;;;;;;22.92;14.43;;;;;;;3.43;100.00;98023.75;6297183;28;20044;-73
2021/11/29 09:23:11;;;;;;;25.58;13.68;;;;;;;3.47;100.00;98027.78;6298333;28;20136;-74
2021/11/29 09:26:13;;;;;;;21.80;13.95;;;;;;;3.59;100.00;98029.56;6298132;28;20443;-74
2021/11/29 09:29:14;;;;;;;18.67;12.40;;;;;;;3.47;100.00;98037.28;6297314;28;20044;-74
2021/11/29 09:32:16;;;;;;;21.65;12.15;;;;;;;3.63;100.00;98043.09;6280277;28;20277;-73
2021/11/29 09:35:18;;;;;;;21.63;14.18;;;;;;;3.74;100.00;98034.66;6298149;28;20082;-74
2021/11/29 09:38:19;;;;;;;25.88;14.88;;;;;;;3.79;100.00;98030.88;6296818;28;20041;-74
2021/11/29 09:41:24;;;;;;;22.42;14.50;;;;;;;3.75;100.00;98039.72;6298405;28;20514;-73
2021/11/29 09:44:25;;;;;;;19.23;11.68;;;;;;;3.69;100.00;98045.28;6299198;28;20052;-73
2021/11/29 09:47:25;;;;;;;21.27;13.32;;;;;;;3.68;100.00;98037.66;6281298;28;20481;-73
2021/11/29 09:50:27;;;;;;;124.07;49.90;;;;;;;3.65;100.00;98032.69;6296802;28;20501;-73
2021/11/29 09:53:30;;;;;;;22.00;12.70;;;;;;;3.70;100.00;98043.53;6296076;28;20489;-73
2021/11/29 09:56:32;;;;;;;23.25;12.80;;;;;;;3.62;100.00;98059.50;6303149;28;20040;-73
2021/11/29 09:59:32;;;;;;;22.00;13.63;;;;;;;3.73;100.00;98053.66;6304768;28;20075;-73
2021/11/29 10:02:33;;;;;;;23.65;13.85;;;;;;;3.69;100.00;98050.44;6320348;28;20040;-73
2021/11/29 10:05:36;;;;;;;21.92;14.05;;;;;;;3.81;100.00;98046.25;6321154;28;20544;-73
2021/11/29 10:08:40;;;;;;;21.35;13.75;;;;;;;3.65;100.00;98041.25;6321292;28;20131;-73
2021/11/29 10:11:40;;;;;;;25.45;14.50;;;;;;;3.59;100.00;98024.41;6321165;28;20122;-73
2021/11/29 10:14:41;;;;;;;17.15;11.88;;;;;;;3.66;100.00;98029.19;6322067;28;20044;-74
2021/11/29 10:17:42;;;;;;;22.77;12.25;;;;;;;3.68;100.00;98030.72;6322240;28;20032;-74
2021/11/29 10:20:50;;;;;;;24.40;13.95;;;;;;;3.72;100.00;98033.94;6321986;28;20111;-74
2021/11/29 10:23:58;;;;;;;23.05;13.27;;;;;;;3.75;100.00;98021.69;6322111;28;20045;-74
2021/11/29 10:27:01;;;;;;;23.23;13.88;;;;;;;3.80;100.00;98029.94;6320694;28;20044;-74
2021/11/29 10:30:04;;;;;;;21.67;12.27;;;;;;;3.71;100.00;98030.53;6320965;28;20043;-74
2021/11/29 10:33:09;;;;;;;21.42;13.80;;;;;;;3.75;100.00;98028.59;6320452;28;20044;-74
2021/11/29 10:36:14;;;;;;;22.65;13.63;;;;;;;3.92;100.00;98030.06;6320686;28;20123;-74
2021/11/29 10:39:28;;;;;;;21.92;14.15;;;;;;;3.93;100.00;98023.97;6322251;28;20131;-74
2021/11/29 10:42:30;;;;;;;20.80;13.18;;;;;;;4.06;100.00;98017.06;6320544;28;20044;-74
2021/11/29 10:45:30;;;;;;;19.70;12.13;;;;;;;4.04;100.00;98016.34;6320599;28;20411;-74
2021/11/29 10:48:32;;;;;;;19.45;12.23;;;;;;;4.04;100.00;98008.59;6321566;28;20036;-71
2021/11/29 10:51:35;;;;;;;16.88;11.60;;;;;;;3.99;100.00;98028.72;6320324;28;20040;-73
2021/11/29 10:54:39;;;;;;;17.98;10.82;;;;;;;4.08;100.00;98029.84;6303505;28;20093;-73
2021/11/29 10:57:47;;;;;;;20.77;12.63;;;;;;;4.14;100.00;98026.88;6322343;28;20062;-73
2021/11/29 11:00:48;;;;;;;17.02;11.02;;;;;;;3.93;100.00;98035.13;6321300;28;20036;-72
2021/11/29 11:03:54;;;;;;;18.45;11.23;;;;;;;3.91;100.00;98031.81;6322091;28;20527;-72
2021/11/29 11:07:08;;;;;;;20.85;11.82;;;;;;;3.76;100.00;98032.81;6320976;28;20127;-72
2021/11/29 11:10:14;;;;;;;19.83;11.85;;;;;;;3.96;100.00;98029.75;6321937;28;20040;-73
2021/11/29 11:13:15;;;;;;;18.45;12.00;;;;;;;3.89;100.00;98032.81;6320354;28;20044;-72
2021/11/29 11:16:43;;;;;;;17.88;10.75;;;;;;;4.02;100.00;98025.94;6321128;28;20074;-72
2021/11/29 11:19:55;;;;;;;21.02;12.75;;;;;;;3.89;100.00;98033.69;6319688;28;20562;-71
2021/11/29 11:22:56;;;;;;;21.98;12.48;;;;;;;3.98;100.00;98034.81;6321717;28;20074;-72
2021/11/29 11:25:57;;;;;;;21.15;12.77;;;;;;;4.14;100.00;98029.44;6320679;28;20551;-73
2021/11/29 11:28:58;;;;;;;24.27;15.63;;;;;;;4.17;100.00;98024.09;6320270;28;20077;-72
2021/11/29 11:32:25;;;;;;;22.02;13.18;;;;;;;4.21;100.00;98026.34;6321874;28;20036;-72
2021/11/29 11:35:33;;;;;;;23.85;13.93;;;;;;;4.17;100.00;98037.00;6314441;28;20048;-73
2021/11/29 11:38:33;;;;;;;19.92;12.65;;;;;;;4.24;100.00;98038.22;6321550;28;20067;-73
2021/11/29 11:41:34;;;;;;;18.52;12.27;;;;;;;4.24;100.00;98039.06;6309133;28;20052;-73
2021/11/29 11:44:39;;;;;;;21.25;12.85;;;;;;;4.13;100.00;98032.97;6294967;28;20126;-72
2021/11/29 11:47:40;;;;;;;19.33;12.65;;;;;;;4.19;100.00;98038.53;6307139;28;20044;-73
2021/11/29 11:50:44;;;;;;;21.10;13.23;;;;;;;4.27;100.00;98037.22;6320414;28;20062;-73
2021/11/29 11:53:45;;;;;;;18.75;11.68;;;;;;;4.10;100.00;98048.63;6321083;28;20473;-72
2021/11/29 11:56:46;;;;;;;20.20;11.45;;;;;;;4.06;100.00;98037.72;6321289;28;20048;-73
2021/11/29 11:59:59;;;;;;;17.80;12.25;;;;;;;4.13;100.00;98051.84;6321240;28;20498;-74
2021/11/29 12:03:05;;;;;;;20.73;12.50;;;;;;;4.17;100.00;98048.13;6320842;28;20400;-74
2021/11/29 12:06:08;;;;;;;18.35;11.40;;;;;;;4.14;100.00;98066.44;6321121;28;20040;-74
2021/11/29 12:09:11;;;;;;;21.20;13.05;;;;;;;4.26;100.00;98063.94;6321064;28;20472;-73
2021/11/29 12:12:12;;;;;;;19.70;12.52;;;;;;;4.24;100.00;98058.88;6321081;28;20036;-74
2021/11/29 12:15:40;;;;;;;18.33;11.88;;;;;;;4.37;100.00;98069.22;6303627;28;20074;-74
2021/11/29 12:18:41;;;;;;;22.73;12.65;;;;;;;4.38;100.00;98066.53;6321090;28;20464;-72
2021/11/29 12:21:43;;;;;;;19.83;11.95;;;;;;;4.32;100.00;98063.53;6319802;28;20054;-71
2021/11/29 12:24:50;;;;;;;18.47;12.47;;;;;;;4.28;100.00;98067.25;6321340;28;20055;-72
2021/11/29 12:28:01;;;;;;;20.65;13.20;;;;;;;4.28;100.00;98070.66;6322258;28;20040;-72
2021/11/29 12:31:02;;;;;;;19.83;11.93;;;;;;;4.26;100.00;98074.28;6324120;28;20419;-72
2021/11/29 12:34:09;;;;;;;18.40;12.15;;;;;;;4.29;100.00;98089.56;6323359;28;20050;-73
2021/11/29 12:37:25;;;;;;;18.15;11.50;;;;;;;4.37;100.00;98079.56;6324479;28;20039;-74
2021/11/29 12:40:41;;;;;;;19.67;12.00;;;;;;;4.37;100.00;98079.56;6323233;28;20150;-74
2021/11/29 12:43:45;;;;;;;16.42;11.52;;;;;;;4.50;100.00;98090.72;6324468;28;20051;-74
2021/11/29 12:46:46;;;;;;;20.92;12.00;;;;;;;4.50;100.00;98089.88;6323361;28;20401;-74
2021/11/29 12:49:47;;;;;;;15.65;10.63;;;;;;;4.43;100.00;98104.97;6322644;28;20044;-72
2021/11/29 12:52:47;;;;;;;14.73;9.80;;;;;;;4.56;100.00;98107.56;6322920;28;20036;-72
2021/11/29 12:55:56;;;;;;;16.85;10.30;;;;;;;4.49;100.00;98104.56;6323109;28;20068;-73
2021/11/29 12:59:03;;;;;;;14.65;9.68;;;;;;;4.44;100.00;98111.78;6322221;28;20047;-73
2021/11/29 13:02:03;;;;;;;16.38;10.48;;;;;;;4.41;100.00;98109.41;6324316;28;20051;-73
2021/11/29 13:05:27;;;;;;;16.08;9.77;;;;;;;4.43;100.00;98117.88;6322634;28;20056;-73
2021/11/29 13:08:39;;;;;;;12.73;9.07;;;;;;;4.38;100.00;98130.25;6310992;28;20060;-73
2021/11/29 13:11:40;;;;;;;13.07;8.73;;;;;;;4.44;100.00;98127.28;6322979;28;20052;-73
2021/11/29 13:14:41;;;;;;;13.70;8.73;;;;;;;4.31;100.00;98135.00;6323630;28;20040;-73
2021/11/29 13:17:42;;;;;;;13.30;8.90;;;;;;;4.33;100.00;98127.16;6323396;28;20085;-73
2021/11/29 13:20:47;;;;;;;15.52;8.45;;;;;;;4.57;100.00;98135.03;6322102;28;20098;-73
2021/11/29 13:23:54;;;;;;;15.23;10.27;;;;;;;4.65;100.00;98137.91;6323597;28;20047;-74
2021/11/29 13:27:01;;;;;;;13.52;9.68;;;;;;;4.61;100.00;98139.06;6323214;28;20058;-73
2021/11/29 13:30:08;;;;;;;15.15;9.00;;;;;;;4.62;100.00;98151.06;6323227;28;20115;-73
2021/11/29 13:33:09;;;;;;;14.25;9.30;;;;;;;4.67;100.00;98150.75;6322183;28;20046;-73
2021/11/29 13:36:10;;;;;;;13.48;9.32;;;;;;;4.69;100.00;98160.03;6305062;28;20334;-73
2021/11/29 13:39:15;;;;;;;16.23;9.75;;;;;;;4.61;100.00;98159.72;6318259;28;20497;-74
2021/11/29 13:42:21;;;;;;;14.18;9.18;;;;;;;4.56;100.00;98172.13;6323113;28;20445;-73
2021/11/29 13:45:25;;;;;;;16.95;10.45;;;;;;;4.56;100.00;98175.53;6321932;28;20489;-74
2021/11/29 13:48:26;;;;;;;18.42;11.30;;;;;;;4.54;100.00;98179.16;6321017;28;20488;-73
2021/11/29 13:51:27;;;;;;;13.77;9.40;;;;;;;4.55;100.00;98176.47;6323317;28;20127;-73
2021/11/29 13:54:28;;;;;;;17.00;10.30;;;;;;;4.59;100.00;98187.41;6286885;28;20048;-73
2021/11/29 13:57:31;;;;;;;18.60;11.13;;;;;;;4.57;100.00;98190.13;6314196;28;20462;-73
2021/11/29 14:00:38;;;;;;;17.23;11.45;;;;;;;4.50;100.00;98194.00;6321977;28;20111;-73
2021/11/29 14:03:48;;;;;;;18.73;11.55;;;;;;;4.49;100.00;98197.53;6323383;28;20396;-73